createdAt,value
2022-08-07T00:01:01.088Z,6.7
2022-08-07T00:02:17.369Z,6.4
2022-08-07T00:03:33.675Z,8.1
2022-08-07T00:04:49.960Z,6.3
2022-08-07T00:06:06.249Z,6.2
2022-08-07T00:07:22.539Z,5.9
2022-08-07T00:08:38.847Z,5
2022-08-07T00:09:55.128Z,5.3
2022-08-07T00:11:11.441Z,6.7
2022-08-07T00:12:27.737Z,6.5
2022-08-07T00:13:44.017Z,7.4
2022-08-07T00:14:59.329Z,6.7
2022-08-07T00:16:15.616Z,7.2
2022-08-07T00:17:31.914Z,6.4
2022-08-07T00:18:48.214Z,6.4
2022-08-07T00:20:04.505Z,6.4
2022-08-07T00:21:20.797Z,6.9
2022-08-07T00:22:37.085Z,6.7
2022-08-07T00:23:53.381Z,6.7
2022-08-07T00:25:09.681Z,6.6
2022-08-07T00:26:25.977Z,5.9
2022-08-07T00:27:42.271Z,5
2022-08-07T00:28:58.568Z,6
2022-08-07T00:30:14.865Z,5.8
2022-08-07T00:31:30.165Z,6.1
2022-08-07T00:32:46.455Z,6.5
2022-08-07T00:34:02.757Z,6
2022-08-07T00:35:19.040Z,6
2022-08-07T00:36:35.346Z,5.4
2022-08-07T00:37:51.636Z,6.5
2022-08-07T00:39:07.941Z,6
2022-08-07T00:40:24.233Z,6.6
2022-08-07T00:41:40.523Z,7
2022-08-07T00:42:56.828Z,5.8
2022-08-07T00:44:13.107Z,6.5
2022-08-07T00:45:29.411Z,5.9
2022-08-07T00:46:45.694Z,5.1
2022-08-07T00:48:01.007Z,5.4
2022-08-07T00:49:17.302Z,5
2022-08-07T00:50:33.604Z,6.9
2022-08-07T00:51:49.891Z,5
2022-08-07T00:53:06.175Z,6.3
2022-08-07T00:54:22.485Z,5.9
2022-08-07T00:55:38.774Z,6.4
2022-08-07T00:56:55.070Z,5.4
2022-08-07T00:58:11.366Z,6.5
2022-08-07T00:59:27.655Z,6.2
2022-08-07T01:00:43.940Z,5.7
2022-08-07T01:02:00.261Z,7.5
2022-08-07T01:03:16.537Z,5.9
2022-08-07T01:04:31.858Z,6.9
2022-08-07T01:05:48.147Z,7.4
2022-08-07T01:07:04.435Z,6.7
2022-08-07T01:08:20.732Z,6.4
2022-08-07T01:09:37.018Z,5.7
2022-08-07T01:10:53.321Z,7.2
2022-08-07T01:12:09.601Z,5.5
2022-08-07T01:13:25.898Z,5.3
2022-08-07T01:14:42.205Z,5.3
2022-08-07T01:15:58.486Z,5.7
2022-08-07T01:17:14.782Z,5.9
2022-08-07T01:18:31.095Z,5.7
2022-08-07T01:19:47.379Z,5
2022-08-07T01:21:02.681Z,5
2022-08-07T01:22:18.982Z,5.7
2022-08-07T01:23:35.277Z,6.4
2022-08-07T01:24:51.567Z,5.6
2022-08-07T01:26:07.867Z,5.6
2022-08-07T01:27:24.145Z,5.9
2022-08-07T01:28:40.458Z,4.6
2022-08-07T01:29:56.738Z,5.1
2022-08-07T01:31:13.042Z,6
2022-08-07T01:32:29.322Z,5.2
2022-08-07T01:33:45.618Z,4.5
2022-08-07T01:35:01.911Z,5.1
2022-08-07T01:36:18.213Z,5.2
2022-08-07T01:37:33.519Z,4.4
2022-08-07T01:38:49.826Z,5.9
2022-08-07T01:40:06.105Z,6.3
2022-08-07T01:41:22.401Z,5.9
2022-08-07T01:42:38.703Z,6.3
2022-08-07T01:43:54.988Z,6.7
2022-08-07T01:45:11.293Z,7.8
2022-08-07T01:46:27.575Z,5.5
2022-08-07T01:47:43.873Z,4.5
2022-08-07T01:49:00.183Z,6
2022-08-07T01:50:16.477Z,5.8
2022-08-07T01:51:32.771Z,6
2022-08-07T01:52:49.060Z,6.2
2022-08-07T01:54:04.367Z,5.1
2022-08-07T01:55:20.668Z,4.7
2022-08-07T01:56:36.965Z,5.9
2022-08-07T01:57:53.253Z,5.1
2022-08-07T01:59:09.551Z,5.1
2022-08-07T02:00:25.834Z,4.5
2022-08-07T02:01:42.121Z,5.5
2022-08-07T02:02:58.418Z,4.1
2022-08-07T02:04:14.725Z,3.8
2022-08-07T02:05:31.002Z,4.2
2022-08-07T02:06:47.313Z,4.3
2022-08-07T02:08:03.598Z,5
2022-08-07T02:09:19.898Z,5.3
2022-08-07T02:10:36.179Z,3.9
2022-08-07T02:11:51.502Z,4.2
2022-08-07T02:13:07.788Z,4.8
2022-08-07T02:14:24.094Z,5.3
2022-08-07T02:15:40.393Z,3.8
2022-08-07T02:16:56.665Z,3.8
2022-08-07T02:18:12.964Z,4.5
2022-08-07T02:19:29.264Z,3.8
2022-08-07T02:20:45.558Z,4.1
2022-08-07T02:22:01.858Z,4.2
2022-08-07T02:23:18.157Z,3.2
2022-08-07T02:24:34.447Z,4.2
2022-08-07T02:25:50.728Z,3.7
2022-08-07T02:27:07.032Z,3.9
2022-08-07T02:28:22.342Z,3.5
2022-08-07T02:29:38.626Z,3.5
2022-08-07T02:30:54.926Z,3.8
2022-08-07T02:32:11.214Z,3.4
2022-08-07T02:33:27.515Z,2.9
2022-08-07T02:34:43.825Z,4.1
2022-08-07T02:36:00.113Z,3.7
2022-08-07T02:37:16.400Z,3.4
2022-08-07T02:38:32.687Z,3.5
2022-08-07T02:39:48.975Z,4.6
2022-08-07T02:41:05.274Z,4
2022-08-07T02:42:21.565Z,4.4
2022-08-07T02:43:37.876Z,4
2022-08-07T02:44:53.167Z,4
2022-08-07T02:46:09.477Z,3.8
2022-08-07T02:47:25.774Z,3.5
2022-08-07T02:48:42.060Z,3.6
2022-08-07T02:49:58.361Z,3.5
2022-08-07T02:51:14.653Z,4.3
2022-08-07T02:52:30.930Z,3.8
2022-08-07T02:53:47.235Z,3.4
2022-08-07T02:55:03.541Z,4
2022-08-07T02:56:19.830Z,4.1
2022-08-07T02:57:36.107Z,3.6
2022-08-07T02:58:52.413Z,3.6
2022-08-07T03:00:08.705Z,4.1
2022-08-07T03:01:24.015Z,4.4
2022-08-07T03:02:40.301Z,3.3
2022-08-07T03:03:56.542Z,4.4
2022-08-07T03:05:12.846Z,4.2
2022-08-07T03:06:29.145Z,3.8
2022-08-07T03:07:45.382Z,3.9
2022-08-07T03:09:01.636Z,3.3
2022-08-07T03:10:17.926Z,3.5
2022-08-07T03:11:34.227Z,3.3
2022-08-07T03:12:50.511Z,3.5
2022-08-07T03:14:06.769Z,3.6
2022-08-07T03:15:23.052Z,3.4
2022-08-07T03:16:39.346Z,4.1
2022-08-07T03:17:54.610Z,3.3
2022-08-07T03:19:10.865Z,3.6
2022-08-07T03:20:27.103Z,3.5
2022-08-07T03:21:43.343Z,4.1
2022-08-07T03:24:15.821Z,5
2022-08-07T03:25:31.074Z,4.7
2022-08-07T03:26:47.311Z,6.8
2022-08-07T03:28:03.561Z,4.5
2022-08-07T03:29:19.793Z,4.7
2022-08-07T03:30:36.036Z,4.8
2022-08-07T03:31:52.283Z,4.8
2022-08-07T03:33:08.524Z,3.9
2022-08-07T03:34:24.753Z,4
2022-08-07T03:35:41.019Z,3.8
2022-08-07T03:36:57.240Z,3.3
2022-08-07T03:38:13.487Z,3.6
2022-08-07T03:39:29.730Z,5
2022-08-07T03:40:45.959Z,3.6
2022-08-07T03:42:01.215Z,3.4
2022-08-07T03:43:17.467Z,4.2
2022-08-07T03:44:33.708Z,3.4
2022-08-07T03:45:49.935Z,4.1
2022-08-07T03:47:06.188Z,4.8
2022-08-07T03:48:22.419Z,4.8
2022-08-07T03:49:38.670Z,4.4
2022-08-07T03:50:54.908Z,3.6
2022-08-07T03:52:11.137Z,3.5
2022-08-07T03:53:27.373Z,4
2022-08-07T03:54:43.623Z,9.6
2022-08-07T03:55:59.859Z,3.6
2022-08-07T03:57:16.102Z,4.2
2022-08-07T03:58:31.349Z,3.3
2022-08-07T03:59:47.607Z,4.1
2022-08-07T04:01:03.846Z,5.1
2022-08-07T04:02:20.081Z,4.8
2022-08-07T04:03:36.338Z,3.3
2022-08-07T04:04:52.560Z,3.7
2022-08-07T04:06:08.796Z,4.7
2022-08-07T04:07:25.039Z,4.9
2022-08-07T04:08:41.286Z,5.3
2022-08-07T04:09:57.519Z,4.5
2022-08-07T04:11:13.768Z,4.9
2022-08-07T04:12:29.996Z,3.5
2022-08-07T04:13:46.247Z,3.4
2022-08-07T04:15:01.508Z,4.2
2022-08-07T04:16:17.738Z,3.7
2022-08-07T04:17:33.983Z,3.7
2022-08-07T04:18:50.232Z,3.3
2022-08-07T04:20:06.463Z,3.7
2022-08-07T04:21:22.703Z,3.3
2022-08-07T04:22:38.943Z,4.9
2022-08-07T04:23:55.168Z,4.3
2022-08-07T04:25:11.427Z,4
2022-08-07T04:26:27.659Z,4.1
2022-08-07T04:27:43.909Z,3.9
2022-08-07T04:29:00.000Z,3.2
2022-08-07T04:30:16.383Z,3.4
2022-08-07T04:31:31.627Z,3.9
2022-08-07T04:32:47.874Z,3.6
2022-08-07T04:34:04.122Z,4.6
2022-08-07T04:35:20.366Z,4.4
2022-08-07T04:36:36.590Z,4.5
2022-08-07T04:37:52.840Z,3.5
2022-08-07T04:39:09.068Z,3.8
2022-08-07T04:40:25.317Z,4.4
2022-08-07T04:41:41.556Z,4.8
2022-08-07T04:42:57.792Z,4.9
2022-08-07T04:44:14.035Z,3.9
2022-08-07T04:45:30.278Z,4.4
2022-08-07T04:46:46.512Z,3.7
2022-08-07T04:48:01.768Z,4.1
2022-08-07T04:49:18.020Z,3.5
2022-08-07T04:50:34.262Z,5.2
2022-08-07T04:51:50.499Z,4.2
2022-08-07T04:53:06.731Z,4
2022-08-07T04:54:22.975Z,5.5
2022-08-07T04:55:39.209Z,5
2022-08-07T04:56:55.451Z,3.9
2022-08-07T04:58:11.699Z,3.6
2022-08-07T04:59:27.938Z,4.9
2022-08-07T05:00:44.172Z,6.2
2022-08-07T05:02:00.414Z,4
2022-08-07T05:03:16.650Z,4.3
2022-08-07T05:04:31.903Z,4.7
2022-08-07T05:05:48.154Z,4.2
2022-08-07T05:07:04.389Z,3.8
2022-08-07T05:08:20.634Z,4.8
2022-08-07T05:09:36.882Z,4.6
2022-08-07T05:10:53.108Z,4.1
2022-08-07T05:12:09.346Z,5.3
2022-08-07T05:13:25.588Z,5.3
2022-08-07T05:14:41.830Z,5.4
2022-08-07T05:15:58.074Z,4.5
2022-08-07T05:17:14.314Z,4.9
2022-08-07T05:18:30.552Z,4.2
2022-08-07T05:19:46.799Z,5.6
2022-08-07T05:21:02.041Z,4.8
2022-08-07T05:22:18.295Z,5.1
2022-08-07T05:23:34.532Z,5.3
2022-08-07T05:24:50.765Z,4.6
2022-08-07T05:26:07.006Z,5.8
2022-08-07T05:27:23.242Z,5.5
2022-08-07T05:28:39.489Z,5.5
2022-08-07T05:29:55.737Z,5.3
2022-08-07T05:31:11.976Z,5.5
2022-08-07T05:32:28.209Z,5.4
2022-08-07T05:33:44.454Z,4.8
2022-08-07T05:35:00.696Z,4.6
2022-08-07T05:36:16.931Z,4.1
2022-08-07T05:37:32.194Z,4.9
2022-08-07T05:38:48.438Z,4.2
2022-08-07T05:40:04.662Z,4.2
2022-08-07T05:41:20.914Z,4.9
2022-08-07T05:42:37.159Z,4.7
2022-08-07T05:43:53.392Z,5.2
2022-08-07T05:45:09.631Z,5.3
2022-08-07T05:46:25.865Z,4.5
2022-08-07T05:47:42.100Z,5.3
2022-08-07T05:48:58.342Z,4.2
2022-08-07T05:50:14.586Z,4.7
2022-08-07T05:51:30.839Z,4.5
2022-08-07T05:52:47.073Z,3.4
2022-08-07T05:54:02.326Z,4.1
2022-08-07T05:55:18.561Z,4.9
2022-08-07T05:56:34.824Z,4
2022-08-07T05:57:51.037Z,4
2022-08-07T05:59:07.280Z,4.4
2022-08-07T06:00:23.520Z,3.5
2022-08-07T06:01:39.758Z,3.8
2022-08-07T06:02:56.009Z,4.4
2022-08-07T06:04:12.236Z,3.7
2022-08-07T06:05:28.495Z,3.4
2022-08-07T06:06:44.739Z,4.9
2022-08-07T06:08:00.965Z,3.7
2022-08-07T06:09:17.220Z,3.8
2022-08-07T06:10:32.463Z,2.9
2022-08-07T06:11:48.712Z,3.7
2022-08-07T06:13:04.945Z,3.3
2022-08-07T06:14:21.177Z,3.1
2022-08-07T06:15:37.414Z,4.4
2022-08-07T06:16:53.666Z,4.6
2022-08-07T06:18:09.895Z,4.5
2022-08-07T06:19:26.150Z,5.3
2022-08-07T06:20:42.389Z,4.6
2022-08-07T06:21:58.614Z,3.7
2022-08-07T06:23:14.857Z,4.1
2022-08-07T06:24:31.102Z,5
2022-08-07T06:27:03.574Z,3.3
2022-08-07T06:28:18.833Z,3.9
2022-08-07T06:29:35.072Z,3.3
2022-08-07T06:30:51.322Z,4.3
2022-08-07T06:32:07.575Z,3.2
2022-08-07T06:33:23.790Z,3.2
2022-08-07T06:34:40.048Z,3.6
2022-08-07T06:35:56.294Z,3.4
2022-08-07T06:37:12.527Z,3.3
2022-08-07T06:38:28.771Z,4.1
2022-08-07T06:39:45.015Z,3.5
2022-08-07T06:41:01.239Z,3.4
2022-08-07T06:42:17.476Z,2.8
2022-08-07T06:43:33.720Z,2.7
2022-08-07T06:44:48.980Z,4.4
2022-08-07T06:46:05.215Z,3
2022-08-07T06:47:21.455Z,3.1
2022-08-07T06:48:37.696Z,2.5
2022-08-07T06:49:53.926Z,3.3
2022-08-07T06:51:10.167Z,3.3
2022-08-07T06:52:26.411Z,4
2022-08-07T06:53:42.650Z,3
2022-08-07T06:54:58.920Z,2.8
2022-08-07T06:56:15.137Z,3.1
2022-08-07T06:57:31.369Z,2.9
2022-08-07T06:58:47.616Z,3.4
2022-08-07T07:00:03.861Z,3
2022-08-07T07:01:19.110Z,3.6
2022-08-07T07:02:35.345Z,3.9
2022-08-07T07:03:51.583Z,3.9
2022-08-07T07:05:07.840Z,3.6
2022-08-07T07:06:24.084Z,5.7
2022-08-07T07:07:40.323Z,6
2022-08-07T07:08:56.560Z,2.9
2022-08-07T07:10:12.785Z,3.5
2022-08-07T07:11:29.027Z,3.9
2022-08-07T07:12:45.277Z,3.5
2022-08-07T07:14:01.522Z,4.1
2022-08-07T07:15:17.764Z,3.1
2022-08-07T07:16:33.985Z,4.4
2022-08-07T07:17:49.257Z,3.2
2022-08-07T07:19:05.496Z,3
2022-08-07T07:20:21.738Z,3.3
2022-08-07T07:21:37.976Z,2.6
2022-08-07T07:22:54.215Z,3.8
2022-08-07T07:24:10.453Z,3.4
2022-08-07T07:25:26.689Z,4.4
2022-08-07T07:26:42.928Z,4
2022-08-07T07:27:59.165Z,4.1
2022-08-07T07:29:15.415Z,4.5
2022-08-07T07:30:31.656Z,4.1
2022-08-07T07:31:47.887Z,3.6
2022-08-07T07:33:04.139Z,3.1
2022-08-07T07:34:19.388Z,5.6
2022-08-07T07:35:35.617Z,3.7
2022-08-07T07:36:51.866Z,3.2
2022-08-07T07:38:08.106Z,3.6
2022-08-07T07:39:24.342Z,3
2022-08-07T07:40:39.608Z,3.9
2022-08-07T07:41:55.844Z,3.8
2022-08-07T07:43:12.093Z,3.4
2022-08-07T07:44:28.332Z,5.4
2022-08-07T07:45:44.568Z,3.8
2022-08-07T07:47:00.802Z,4.1
2022-08-07T07:48:17.057Z,2.9
2022-08-07T07:49:33.296Z,3.5
2022-08-07T07:50:49.536Z,3.6
2022-08-07T07:52:05.765Z,3
2022-08-07T07:53:22.011Z,3.9
2022-08-07T07:54:38.247Z,4.5
2022-08-07T07:55:54.492Z,4.7
2022-08-07T07:58:25.987Z,5
2022-08-07T07:59:42.234Z,2.8
2022-08-07T08:00:58.465Z,2.8
2022-08-07T08:02:14.697Z,3.2
2022-08-07T08:03:30.946Z,3.2
2022-08-07T08:04:47.193Z,3.9
2022-08-07T08:06:03.000Z,3.1
2022-08-07T08:07:19.676Z,3.2
2022-08-07T08:08:35.911Z,3.2
2022-08-07T08:09:52.138Z,2.5
2022-08-07T08:11:08.381Z,2.8
2022-08-07T08:12:24.629Z,4
2022-08-07T08:13:39.878Z,2.2
2022-08-07T08:14:56.138Z,3
2022-08-07T08:16:12.358Z,2.5
2022-08-07T08:17:28.605Z,3.5
2022-08-07T08:18:44.848Z,3.2
2022-08-07T08:20:01.092Z,4.1
2022-08-07T08:21:17.331Z,2.1
2022-08-07T08:22:33.000Z,5.2
2022-08-07T08:23:49.812Z,2.6
2022-08-07T08:25:06.054Z,3.7
2022-08-07T08:26:22.278Z,2.5
2022-08-07T08:27:38.529Z,1.9
2022-08-07T08:28:54.770Z,1.9
2022-08-07T08:30:10.034Z,1.5
2022-08-07T08:31:26.251Z,2.3
2022-08-07T08:32:42.505Z,2.8
2022-08-07T08:35:14.989Z,2.4
2022-08-07T08:36:31.219Z,2.7
2022-08-07T08:37:47.466Z,2.7
2022-08-07T08:39:03.695Z,2.3
2022-08-07T08:40:19.945Z,2.6
2022-08-07T08:41:36.178Z,3.4
2022-08-07T08:42:52.414Z,3.2
2022-08-07T08:44:08.665Z,3.1
2022-08-07T08:45:24.894Z,2.5
2022-08-07T08:46:40.149Z,2.2
2022-08-07T08:47:56.403Z,2.8
2022-08-07T08:49:12.640Z,2.3
2022-08-07T08:50:28.877Z,2
2022-08-07T08:51:45.121Z,2.4
2022-08-07T08:53:01.350Z,2.5
2022-08-07T08:54:17.608Z,2.1
2022-08-07T08:55:33.832Z,1.7
2022-08-07T08:56:50.080Z,3.4
2022-08-07T08:58:06.313Z,2.2
2022-08-07T08:59:22.550Z,2.9
2022-08-07T09:00:38.793Z,2.4
2022-08-07T09:01:55.038Z,1.8
2022-08-07T09:03:10.298Z,3.1
2022-08-07T09:04:26.527Z,3
2022-08-07T09:05:42.770Z,2.7
2022-08-07T09:06:59.009Z,2.7
2022-08-07T09:08:15.260Z,2.6
2022-08-07T09:09:31.493Z,3.3
2022-08-07T09:10:47.743Z,3
2022-08-07T09:12:03.975Z,2.1
2022-08-07T09:13:20.218Z,3.5
2022-08-07T09:14:36.461Z,2.6
2022-08-07T09:15:52.708Z,2.2
2022-08-07T09:17:08.936Z,3.3
2022-08-07T09:18:25.172Z,3.4
2022-08-07T09:19:40.441Z,3.1
2022-08-07T09:20:56.675Z,2.1
2022-08-07T09:22:12.905Z,1.9
2022-08-07T09:23:29.157Z,2.5
2022-08-07T09:24:45.389Z,2.3
2022-08-07T09:26:01.634Z,3.7
2022-08-07T09:27:17.881Z,2.9
2022-08-07T09:28:34.117Z,1.5
2022-08-07T09:29:50.352Z,2.3
2022-08-07T09:31:06.599Z,4.5
2022-08-07T09:32:22.844Z,1.7
2022-08-07T09:33:39.085Z,3.1
2022-08-07T09:34:55.323Z,2.5
2022-08-07T09:36:10.564Z,2.9
2022-08-07T09:37:26.804Z,2.4
2022-08-07T09:38:43.047Z,3.6
2022-08-07T09:39:59.300Z,2.9
2022-08-07T09:41:15.534Z,2.4
2022-08-07T09:42:31.778Z,4.9
2022-08-07T09:43:48.011Z,2.5
2022-08-07T09:45:04.260Z,8.6
2022-08-07T09:46:20.486Z,8.7
2022-08-07T09:47:36.725Z,8.9
2022-08-07T09:48:52.968Z,6.4
2022-08-07T09:50:09.215Z,1.7
2022-08-07T09:51:25.464Z,2.4
2022-08-07T09:52:40.707Z,2.4
2022-08-07T09:53:56.945Z,2.7
2022-08-07T09:55:13.183Z,2.9
2022-08-07T09:56:29.432Z,2.3
2022-08-07T09:57:45.667Z,2
2022-08-07T09:59:01.907Z,3.7
2022-08-07T10:00:18.141Z,3.1
2022-08-07T10:01:34.388Z,3
2022-08-07T10:02:50.639Z,2
2022-08-07T10:04:06.868Z,2.5
2022-08-07T10:05:23.106Z,2.5
2022-08-07T10:06:39.354Z,2.5
2022-08-07T10:07:55.583Z,2.6
2022-08-07T10:09:10.841Z,2.3
2022-08-07T10:10:27.080Z,3.7
2022-08-07T10:11:43.318Z,2.9
2022-08-07T10:12:59.563Z,2.8
2022-08-07T10:14:15.810Z,2.3
2022-08-07T10:15:32.041Z,2
2022-08-07T10:16:48.278Z,2
2022-08-07T10:18:04.529Z,3.1
2022-08-07T10:19:20.765Z,1.8
2022-08-07T10:20:37.001Z,2.5
2022-08-07T10:21:53.250Z,3.8
2022-08-07T10:23:09.495Z,2.6
2022-08-07T10:24:25.718Z,3.4
2022-08-07T10:25:40.985Z,2
2022-08-07T10:26:57.229Z,3.3
2022-08-07T10:28:13.471Z,2.2
2022-08-07T10:29:29.708Z,2
2022-08-07T10:30:45.942Z,1.6
2022-08-07T10:32:02.178Z,2.2
2022-08-07T10:33:18.434Z,2.2
2022-08-07T10:34:34.663Z,2.7
2022-08-07T10:35:50.902Z,3
2022-08-07T10:37:07.136Z,2.3
2022-08-07T10:38:23.392Z,2.5
2022-08-07T10:39:39.632Z,3.3
2022-08-07T10:40:55.863Z,2.4
2022-08-07T10:42:11.124Z,1.7
2022-08-07T10:43:27.358Z,2.3
2022-08-07T10:44:43.608Z,2
2022-08-07T10:45:59.833Z,1.7
2022-08-07T10:47:16.080Z,1.8
2022-08-07T10:48:32.325Z,2.8
2022-08-07T10:49:48.550Z,2.6
2022-08-07T10:51:04.791Z,2.1
2022-08-07T10:52:21.031Z,2.8
2022-08-07T10:53:37.274Z,2.4
2022-08-07T10:54:53.511Z,2.6
2022-08-07T10:56:09.754Z,1.8
2022-08-07T10:57:26.003Z,2
2022-08-07T10:58:41.253Z,2.6
2022-08-07T10:59:57.495Z,2
2022-08-07T11:01:13.737Z,2.6
2022-08-07T11:02:29.971Z,2.6
2022-08-07T11:03:46.207Z,2.1
2022-08-07T11:05:02.458Z,1.9
2022-08-07T11:06:18.693Z,2.6
2022-08-07T11:07:34.929Z,3.6
2022-08-07T11:08:51.173Z,3.5
2022-08-07T11:10:07.418Z,2.8
2022-08-07T11:11:23.662Z,2.8
2022-08-07T11:12:39.886Z,1.7
2022-08-07T11:13:56.143Z,1.9
2022-08-07T11:15:11.388Z,1.7
2022-08-07T11:16:27.641Z,2.1
2022-08-07T11:17:43.875Z,2.6
2022-08-07T11:19:00.121Z,2.3
2022-08-07T11:20:16.352Z,1.7
2022-08-07T11:21:32.581Z,2.3
2022-08-07T11:22:48.836Z,2.8
2022-08-07T11:24:05.072Z,2.2
2022-08-07T11:25:21.312Z,1.9
2022-08-07T11:26:37.546Z,2.2
2022-08-07T11:27:53.786Z,2.6
2022-08-07T11:29:10.034Z,2.5
2022-08-07T11:30:26.267Z,2.4
2022-08-07T11:31:41.533Z,3
2022-08-07T11:32:57.775Z,2
2022-08-07T11:34:14.007Z,4
2022-08-07T11:35:30.244Z,1.6
2022-08-07T11:36:46.490Z,3.2
2022-08-07T11:38:02.725Z,2.1
2022-08-07T11:39:18.973Z,2.2
2022-08-07T11:40:35.204Z,2.1
2022-08-07T11:41:51.443Z,2.1
2022-08-07T11:43:07.687Z,2.6
2022-08-07T11:44:23.922Z,2.5
2022-08-07T11:45:40.168Z,1.8
2022-08-07T11:46:56.411Z,2.5
2022-08-07T11:48:11.668Z,1.6
2022-08-07T11:49:27.906Z,2.6
2022-08-07T11:50:44.145Z,2.1
2022-08-07T11:52:00.374Z,3.1
2022-08-07T11:53:16.629Z,2.2
2022-08-07T11:54:32.869Z,2.5
2022-08-07T11:55:48.123Z,3
2022-08-07T11:57:04.356Z,2.4
2022-08-07T11:58:20.601Z,2.3
2022-08-07T11:59:36.837Z,2
2022-08-07T12:00:53.084Z,2.8
2022-08-07T12:02:09.318Z,1.4
2022-08-07T12:03:25.568Z,3.6
2022-08-07T12:04:41.799Z,2.3
2022-08-07T12:05:58.034Z,3.3
2022-08-07T12:07:14.285Z,1.9
2022-08-07T12:08:30.522Z,1.8
2022-08-07T12:09:46.755Z,2.7
2022-08-07T12:11:03.001Z,1.7
2022-08-07T12:12:18.256Z,2.6
2022-08-07T12:13:34.500Z,1.6
2022-08-07T12:14:50.742Z,4.1
2022-08-07T12:16:06.969Z,2.3
2022-08-07T12:17:23.218Z,2.5
2022-08-07T12:18:39.464Z,2.4
2022-08-07T12:19:55.688Z,2
2022-08-07T12:21:11.928Z,3.1
2022-08-07T12:22:28.183Z,3.4
2022-08-07T12:23:44.410Z,2.1
2022-08-07T12:25:00.650Z,2.3
2022-08-07T12:26:16.890Z,2.4
2022-08-07T12:27:33.139Z,2.8
2022-08-07T12:28:48.384Z,1.8
2022-08-07T12:30:04.633Z,2
2022-08-07T12:31:20.881Z,3.1
2022-08-07T12:32:37.110Z,2.4
2022-08-07T12:33:53.362Z,2.9
2022-08-07T12:35:09.586Z,1.9
2022-08-07T12:36:25.831Z,2.9
2022-08-07T12:37:42.070Z,3.4
2022-08-07T12:38:58.309Z,2
2022-08-07T12:40:14.549Z,2.2
2022-08-07T12:41:30.783Z,2.1
2022-08-07T12:42:47.035Z,2.3
2022-08-07T12:44:03.284Z,1.7
2022-08-07T12:45:18.528Z,2.8
2022-08-07T12:46:34.763Z,1.9
2022-08-07T12:47:51.009Z,1.9
2022-08-07T12:49:07.243Z,3.1
2022-08-07T12:50:23.493Z,2.7
2022-08-07T12:51:39.727Z,3.1
2022-08-07T12:52:55.964Z,1.7
2022-08-07T12:54:12.199Z,2.1
2022-08-07T12:55:28.447Z,3.5
2022-08-07T12:56:44.697Z,1.8
2022-08-07T12:58:00.932Z,2.2
2022-08-07T12:59:17.166Z,1.6
2022-08-07T13:00:33.419Z,2.4
2022-08-07T13:01:48.663Z,2
2022-08-07T13:03:04.912Z,1.8
2022-08-07T13:04:21.150Z,3.2
2022-08-07T13:05:37.386Z,2.8
2022-08-07T13:06:53.634Z,2
2022-08-07T13:08:09.873Z,3
2022-08-07T13:09:26.116Z,2.4
2022-08-07T13:10:42.344Z,2.1
2022-08-07T13:11:58.589Z,2.2
2022-08-07T13:13:14.827Z,2.5
2022-08-07T13:14:31.063Z,2.3
2022-08-07T13:15:47.297Z,3.1
2022-08-07T13:17:03.543Z,2.9
2022-08-07T13:18:18.816Z,1.9
2022-08-07T13:19:35.044Z,2.5
2022-08-07T13:20:51.288Z,2.8
2022-08-07T13:22:07.517Z,3
2022-08-07T13:23:23.757Z,2.6
2022-08-07T13:24:40.011Z,1.9
2022-08-07T13:25:56.253Z,2
2022-08-07T13:27:12.475Z,1.8
2022-08-07T13:28:28.722Z,3
2022-08-07T13:29:44.972Z,1.9
2022-08-07T13:31:01.205Z,3.1
2022-08-07T13:32:17.434Z,3.4
2022-08-07T13:33:33.685Z,2.5
2022-08-07T13:34:48.931Z,2.7
2022-08-07T13:36:05.186Z,2.2
2022-08-07T13:37:21.419Z,3.8
2022-08-07T13:38:37.657Z,1.7
2022-08-07T13:39:53.896Z,2.2
2022-08-07T13:41:10.140Z,2.5
2022-08-07T13:42:26.380Z,2.2
2022-08-07T13:43:42.611Z,3
2022-08-07T13:44:58.868Z,4.2
2022-08-07T13:46:15.094Z,2.8
2022-08-07T13:47:31.334Z,2.5
2022-08-07T13:48:47.590Z,2.5
2022-08-07T13:50:03.823Z,2.5
2022-08-07T13:51:19.071Z,2.9
2022-08-07T13:52:35.307Z,2.4
2022-08-07T13:53:51.560Z,2.1
2022-08-07T13:55:07.792Z,2.1
2022-08-07T13:56:24.037Z,2.6
2022-08-07T13:57:40.283Z,2.3
2022-08-07T13:58:56.510Z,2.6
2022-08-07T14:00:12.748Z,1.9
2022-08-07T14:01:28.988Z,2.6
2022-08-07T14:02:45.240Z,2.3
2022-08-07T14:04:01.478Z,2
2022-08-07T14:05:17.720Z,2.2
2022-08-07T14:06:33.949Z,1.6
2022-08-07T14:07:49.203Z,3.9
2022-08-07T14:09:05.442Z,2.1
2022-08-07T14:10:21.680Z,1.9
2022-08-07T14:11:37.926Z,3.6
2022-08-07T14:12:54.175Z,2.2
2022-08-07T14:14:10.419Z,1.8
2022-08-07T14:15:26.660Z,1.7
2022-08-07T14:16:42.896Z,2.9
2022-08-07T14:19:15.367Z,2.5
2022-08-07T14:20:31.614Z,3.3
2022-08-07T14:21:47.850Z,2.6
2022-08-07T14:23:04.090Z,2.5
2022-08-07T14:24:19.345Z,1.9
2022-08-07T14:25:35.591Z,2.3
2022-08-07T14:26:51.829Z,1.8
2022-08-07T14:28:08.068Z,3.6
2022-08-07T14:29:24.304Z,2.2
2022-08-07T14:30:40.547Z,2.2
2022-08-07T14:31:56.794Z,1.9
2022-08-07T14:33:13.019Z,3.2
2022-08-07T14:34:29.257Z,4.3
2022-08-07T14:35:45.504Z,2.8
2022-08-07T14:37:01.748Z,3
2022-08-07T14:38:17.979Z,2.4
2022-08-07T14:39:34.233Z,2.8
2022-08-07T14:40:49.477Z,3.1
2022-08-07T14:42:05.723Z,2.1
2022-08-07T14:43:21.954Z,3.8
2022-08-07T14:44:38.211Z,2.1
2022-08-07T14:45:54.438Z,3
2022-08-07T14:47:10.673Z,2.6
2022-08-07T14:48:26.926Z,3
2022-08-07T14:49:43.000Z,3.5
2022-08-07T14:50:59.403Z,2.4
2022-08-07T14:52:15.639Z,3.6
2022-08-07T14:53:31.891Z,2.3
2022-08-07T14:54:48.134Z,2.7
2022-08-07T14:56:04.372Z,1.3
2022-08-07T14:57:19.628Z,3.2
2022-08-07T14:58:35.866Z,2.2
2022-08-07T14:59:52.091Z,2.2
2022-08-07T15:01:08.347Z,2
2022-08-07T15:02:24.580Z,2.8
2022-08-07T15:03:40.810Z,2.2
2022-08-07T15:04:57.063Z,2.5
2022-08-07T15:06:13.295Z,2.3
2022-08-07T15:07:29.538Z,2.9
2022-08-07T15:08:45.773Z,3
2022-08-07T15:10:02.024Z,3.4
2022-08-07T15:11:18.253Z,2.7
2022-08-07T15:12:34.517Z,2.8
2022-08-07T15:13:49.763Z,3.8
2022-08-07T15:15:05.991Z,2.9
2022-08-07T15:16:22.239Z,2.5
2022-08-07T15:17:38.473Z,2.8
2022-08-07T15:20:10.952Z,3.5
2022-08-07T15:21:27.194Z,1.9
2022-08-07T15:22:43.428Z,3
2022-08-07T15:23:59.689Z,2
2022-08-07T15:25:15.909Z,2.2
2022-08-07T15:26:32.151Z,2.5
2022-08-07T15:27:48.405Z,3
2022-08-07T15:29:04.643Z,2.7
2022-08-07T15:30:19.897Z,2.4
2022-08-07T15:31:36.138Z,2
2022-08-07T15:32:52.374Z,3.1
2022-08-07T15:34:08.608Z,2.4
2022-08-07T15:35:24.853Z,2.4
2022-08-07T15:36:41.095Z,2.6
2022-08-07T15:37:57.342Z,3.4
2022-08-07T15:39:13.570Z,3
2022-08-07T15:40:29.815Z,2.8
2022-08-07T15:41:46.059Z,1.7
2022-08-07T15:43:02.289Z,1.8
2022-08-07T15:44:18.539Z,2.2
2022-08-07T15:45:34.767Z,2.8
2022-08-07T15:46:50.024Z,3.1
2022-08-07T15:48:06.280Z,2.4
2022-08-07T15:50:38.739Z,2.6
2022-08-07T15:51:54.979Z,2.2
2022-08-07T15:53:11.229Z,2.5
2022-08-07T15:54:27.479Z,2.2
2022-08-07T15:55:43.703Z,2.2
2022-08-07T15:56:59.942Z,2.3
2022-08-07T15:58:16.198Z,1.9
2022-08-07T15:59:32.438Z,2.2
2022-08-07T16:00:48.660Z,3
2022-08-07T16:02:04.903Z,2.4
2022-08-07T16:03:20.177Z,1.8
2022-08-07T16:04:36.403Z,4
2022-08-07T16:05:52.656Z,2.8
2022-08-07T16:07:08.888Z,2.6
2022-08-07T16:08:25.123Z,2.8
2022-08-07T16:09:41.358Z,3.1
2022-08-07T16:10:56.618Z,2.3
2022-08-07T16:12:12.859Z,2.3
2022-08-07T16:13:29.099Z,4.4
2022-08-07T16:14:45.342Z,2.4
2022-08-07T16:16:01.593Z,3
2022-08-07T16:17:17.829Z,2.7
2022-08-07T16:18:34.072Z,2.5
2022-08-07T16:19:50.304Z,2.3
2022-08-07T16:21:06.551Z,2.5
2022-08-07T16:22:22.788Z,2.3
2022-08-07T16:23:39.034Z,3.3
2022-08-07T16:24:55.263Z,3
2022-08-07T16:26:11.498Z,2.1
2022-08-07T16:27:26.768Z,2.4
2022-08-07T16:28:43.005Z,2.3
2022-08-07T16:29:59.240Z,2.8
2022-08-07T16:31:15.480Z,2.1
2022-08-07T16:32:31.717Z,2.6
2022-08-07T16:33:47.958Z,2
2022-08-07T16:35:04.190Z,2
2022-08-07T16:36:20.432Z,2.9
2022-08-07T16:37:36.674Z,2.9
2022-08-07T16:38:52.919Z,2.3
2022-08-07T16:40:09.161Z,2
2022-08-07T16:41:25.407Z,2.7
2022-08-07T16:42:41.647Z,2
2022-08-07T16:43:56.888Z,2.9
2022-08-07T16:45:13.142Z,2
2022-08-07T16:46:29.377Z,2.8
2022-08-07T16:47:45.612Z,3.1
2022-08-07T16:49:01.849Z,3.8
2022-08-07T16:50:18.095Z,2.6
2022-08-07T16:51:34.329Z,2.6
2022-08-07T16:52:50.564Z,2.4
2022-08-07T16:54:06.804Z,3.9
2022-08-07T16:55:23.066Z,2.2
2022-08-07T16:56:39.288Z,2.3
2022-08-07T16:57:55.527Z,2.1
2022-08-07T16:59:11.775Z,3.2
2022-08-07T17:00:27.035Z,3.1
2022-08-07T17:01:43.265Z,3.2
2022-08-07T17:02:59.516Z,3.9
2022-08-07T17:04:15.749Z,3.4
2022-08-07T17:05:31.998Z,2.2
2022-08-07T17:06:48.235Z,3.2
2022-08-07T17:08:04.473Z,3.1
2022-08-07T17:09:20.700Z,2.3
2022-08-07T17:10:36.957Z,2.5
2022-08-07T17:11:53.191Z,2.4
2022-08-07T17:13:09.425Z,2.2
2022-08-07T17:14:25.664Z,3.6
2022-08-07T17:15:41.913Z,2.5
2022-08-07T17:16:57.157Z,3.1
2022-08-07T17:18:13.395Z,2.9
2022-08-07T17:19:29.634Z,2.1
2022-08-07T17:20:45.874Z,1.5
2022-08-07T17:22:02.123Z,2.4
2022-08-07T17:23:18.355Z,2.8
2022-08-07T17:24:34.593Z,3.1
2022-08-07T17:25:50.833Z,3.3
2022-08-07T17:27:07.078Z,2.5
2022-08-07T17:28:23.332Z,3.5
2022-08-07T17:29:39.576Z,3.2
2022-08-07T17:30:55.800Z,2.3
2022-08-07T17:32:12.043Z,3.3
2022-08-07T17:33:27.309Z,4.2
2022-08-07T17:34:43.537Z,4.3
2022-08-07T17:35:59.772Z,2.8
2022-08-07T17:37:16.023Z,2.8
2022-08-07T17:38:32.268Z,4.1
2022-08-07T17:39:48.508Z,2
2022-08-07T17:41:04.728Z,3.1
2022-08-07T17:42:20.985Z,3
2022-08-07T17:43:37.212Z,3.2
2022-08-07T17:44:53.449Z,2.3
2022-08-07T17:46:09.697Z,2.1